Yatesville, Pennsylvania
Current Conditions -  °F | °C
As of 8:54 AM on Friday 19 Dec 2014 (Local Time) from KAVP Reporting Station
Overcast Overcast  
Wind Chill: 23°   Ceiling: 2200
Heat Index: 31°   Visibility: 10mi
Dew Point: 21°   Wind: 9mph
Humidity: 67%   Direction: 340°NNW
Pressure: 30.06"   Gusts: NA
Location:  41.2973°N, 75.7399°W
Report Text: KAVP 191354Z AUTO 34008KT 10SM OVC022 M01/M06 A3006 RMK AO2 SLP187 T10061061
Loading
Personal Weather Stations






























Interactive Weather Map New forecast layout! Learn more

10-Day Weather Forecast

Advertisements
Track Severe Weather on mobile